Time;durP1;ratioP1;P1;durP2;ratioP2;P2;SDS_P1;SDS_P2;PMS_P1;PMS_P2;Temp;Humidity;BMP_temperature;BMP_pressure;BME280_temperature;BME280_humidity;BME280_pressure;Samples;Min_cycle;Max_cycle;Signal;HPM_P1;HPM_P2
2021/06/12 00:03:07;;;;;;;3.97;2.95;;;25.30;48.60;;;;;;10090546;28;20025;-58
2021/06/12 00:07:58;;;;;;;3.67;3.20;;;25.40;48.40;;;;;;10085455;28;20546;-57
2021/06/12 00:12:49;;;;;;;7.88;4.00;;;25.50;48.40;;;;;;10086176;28;20041;-58
2021/06/12 00:17:40;;;;;;;3.05;2.75;;;25.30;48.60;;;;;;10086716;28;20037;-58
2021/06/12 00:22:31;;;;;;;5.30;3.17;;;25.40;48.60;;;;;;10087763;28;20408;-57
2021/06/12 00:27:21;;;;;;;4.80;3.72;;;25.40;48.70;;;;;;10088020;28;20025;-59
2021/06/12 00:32:13;;;;;;;6.30;3.60;;;25.40;48.90;;;;;;10086578;28;20121;-58
2021/06/12 00:37:04;;;;;;;7.10;3.75;;;25.30;49.20;;;;;;10087675;28;20317;-57
2021/06/12 00:41:55;;;;;;;4.03;3.63;;;25.20;49.40;;;;;;10085326;28;20368;-56
2021/06/12 00:46:46;;;;;;;4.50;3.90;;;25.20;49.50;;;;;;10087558;28;20111;-60
2021/06/12 00:51:36;;;;;;;5.78;4.10;;;25.20;49.80;;;;;;10085920;28;20039;-59
2021/06/12 00:56:28;;;;;;;6.63;4.53;;;25.00;50.10;;;;;;10086946;28;20041;-59
2021/06/12 01:01:21;;;;;;;6.10;5.22;;;24.90;50.30;;;;;;10085591;28;20056;-59
2021/06/12 01:06:15;;;;;;;4.95;4.45;;;24.70;51.00;;;;;;10086189;28;20400;-59
2021/06/12 01:11:06;;;;;;;5.60;5.07;;;24.70;51.30;;;;;;10080650;28;20055;-59
2021/06/12 01:16:12;;;;;;;7.10;6.40;;;24.70;51.60;;;;;;10083422;28;20526;-57
2021/06/12 01:21:43;;;;;;;8.52;5.90;;;24.60;52.10;;;;;;10086084;28;20032;-59
2021/06/12 01:26:42;;;;;;;8.40;6.60;;;24.40;53.20;;;;;;10084998;28;20036;-59
2021/06/12 01:31:34;;;;;;;9.55;6.25;;;24.30;53.30;;;;;;10084599;28;20039;-57
2021/06/12 01:36:27;;;;;;;6.57;5.70;;;24.20;53.60;;;;;;10080546;28;20068;-60
2021/06/12 01:41:21;;;;;;;7.40;5.65;;;24.10;54.00;;;;;;10083949;28;21722;-57
2021/06/12 01:46:12;;;;;;;6.85;5.63;;;23.90;54.40;;;;;;10084276;28;20104;-58
2021/06/12 01:51:05;;;;;;;8.55;6.70;;;23.80;54.80;;;;;;10085456;28;20029;-59
2021/06/12 01:56:02;;;;;;;7.78;5.72;;;23.70;54.80;;;;;;10081591;28;20519;-58
2021/06/12 02:00:54;;;;;;;9.35;5.68;;;23.70;55.00;;;;;;10084115;28;20029;-60
2021/06/12 02:05:46;;;;;;;7.30;5.53;;;23.50;55.10;;;;;;10081207;28;20579;-60
2021/06/12 02:10:38;;;;;;;8.30;6.38;;;23.40;56.20;;;;;;10085062;28;20036;-60
2021/06/12 02:15:30;;;;;;;7.53;5.95;;;23.30;55.30;;;;;;10081450;28;20507;-58
2021/06/12 02:20:22;;;;;;;6.78;5.32;;;23.20;55.70;;;;;;10085159;28;20025;-58
2021/06/12 02:25:14;;;;;;;6.95;5.97;;;23.20;55.60;;;;;;10081509;28;20499;-58
2021/06/12 02:30:07;;;;;;;7.72;6.07;;;23.20;55.70;;;;;;10081785;28;20115;-60
2021/06/12 02:34:58;;;;;;;9.23;6.18;;;23.10;55.80;;;;;;10081022;28;20238;-57
2021/06/12 02:39:48;;;;;;;6.28;5.30;;;23.10;55.80;;;;;;10082683;28;20530;-58
2021/06/12 02:44:39;;;;;;;7.15;5.93;;;23.00;56.10;;;;;;10085216;28;20024;-57
2021/06/12 02:49:36;;;;;;;6.93;5.55;;;22.80;56.60;;;;;;10082987;28;20379;-57
2021/06/12 02:54:27;;;;;;;6.97;6.00;;;22.90;56.50;;;;;;10084388;28;20037;-57
2021/06/12 02:59:19;;;;;;;7.47;6.30;;;22.80;56.60;;;;;;10082015;28;20118;-59
2021/06/12 03:04:13;;;;;;;8.90;6.78;;;22.80;56.80;;;;;;10084631;28;20071;-57
2021/06/12 03:09:05;;;;;;;10.57;6.85;;;22.70;57.00;;;;;;10081068;28;20041;-58
2021/06/12 03:13:57;;;;;;;7.88;6.18;;;22.60;57.50;;;;;;10081528;28;20515;-59
2021/06/12 03:18:48;;;;;;;6.75;6.05;;;22.60;57.60;;;;;;10081869;28;20033;-57
2021/06/12 03:23:40;;;;;;;8.05;6.93;;;22.70;57.70;;;;;;10080854;28;20442;-58
2021/06/12 03:28:31;;;;;;;6.47;5.75;;;22.60;57.80;;;;;;10082747;28;20036;-57
2021/06/12 03:33:23;;;;;;;7.22;6.40;;;22.50;58.30;;;;;;10081865;28;20032;-58
2021/06/12 03:38:15;;;;;;;9.63;6.70;;;22.50;58.60;;;;;;10083638;28;20122;-57
2021/06/12 03:43:07;;;;;;;9.13;6.35;;;22.60;58.50;;;;;;10078661;28;20016;-58
2021/06/12 03:48:02;;;;;;;7.40;6.32;;;22.60;58.60;;;;;;10081883;28;20025;-59
2021/06/12 03:52:54;;;;;;;6.32;5.60;;;22.60;58.70;;;;;;10078708;28;20075;-57
2021/06/12 03:57:45;;;;;;;8.32;6.05;;;22.50;58.90;;;;;;10082302;28;20112;-58
2021/06/12 04:02:36;;;;;;;9.30;5.75;;;22.40;59.00;;;;;;10087044;28;20024;-60
2021/06/12 04:07:27;;;;;;;9.15;6.15;;;22.50;58.90;;;;;;10088259;28;20491;-60
2021/06/12 04:12:18;;;;;;;7.00;5.50;;;22.30;59.20;;;;;;10086826;28;20112;-60
2021/06/12 04:17:08;;;;;;;6.95;6.25;;;22.30;59.20;;;;;;10086932;28;20116;-58
2021/06/12 04:21:59;;;;;;;7.72;6.20;;;22.30;59.30;;;;;;10088881;28;20024;-59
2021/06/12 04:26:50;;;;;;;8.35;6.13;;;22.40;59.20;;;;;;10086053;28;20063;-59
2021/06/12 04:31:41;;;;;;;6.70;5.43;;;22.40;59.30;;;;;;10089005;28;20542;-57
2021/06/12 04:36:31;;;;;;;6.63;5.18;;;22.40;59.30;;;;;;10086458;28;20033;-57
2021/06/12 04:41:22;;;;;;;7.45;6.07;;;22.40;59.40;;;;;;10086810;28;20033;-59
2021/06/12 04:46:14;;;;;;;8.18;6.07;;;22.40;59.50;;;;;;10086629;28;20025;-58
2021/06/12 04:51:06;;;;;;;7.45;5.63;;;22.50;59.40;;;;;;10086320;28;20252;-59
2021/06/12 04:55:58;;;;;;;9.55;5.75;;;22.60;59.40;;;;;;10086978;28;20047;-58
2021/06/12 05:00:50;;;;;;;6.47;5.68;;;22.60;59.30;;;;;;10085485;28;20426;-60
2021/06/12 05:05:41;;;;;;;6.38;5.38;;;22.50;59.50;;;;;;10085011;28;20037;-61
2021/06/12 05:10:32;;;;;;;7.15;5.47;;;22.50;59.50;;;;;;10082318;28;20057;-58
2021/06/12 05:15:28;;;;;;;7.68;5.28;;;22.50;59.40;;;;;;10087407;28;20033;-58
2021/06/12 05:20:21;;;;;;;5.78;4.90;;;22.60;59.30;;;;;;10084143;28;20091;-57
2021/06/12 05:25:12;;;;;;;8.35;5.70;;;22.70;59.10;;;;;;10086284;28;20037;-58
2021/06/12 05:30:04;;;;;;;6.75;5.80;;;22.80;58.90;;;;;;10085136;28;20510;-59
2021/06/12 05:34:56;;;;;;;7.80;5.80;;;22.80;59.10;;;;;;10086768;28;20032;-58
2021/06/12 05:39:47;;;;;;;7.30;6.07;;;22.70;59.20;;;;;;10083610;28;20124;-59
2021/06/12 05:44:38;;;;;;;8.35;6.43;;;22.60;59.40;;;;;;10084218;28;20036;-59
2021/06/12 05:49:28;;;;;;;7.60;6.25;;;22.80;59.20;;;;;;10085034;28;20572;-60
2021/06/12 05:54:19;;;;;;;8.75;5.82;;;22.90;59.20;;;;;;10083418;28;20676;-60
2021/06/12 05:59:10;;;;;;;8.25;6.15;;;22.80;59.30;;;;;;10084942;28;20037;-58
2021/06/12 06:04:00;;;;;;;6.80;6.00;;;22.80;59.30;;;;;;10082650;28;20106;-59
2021/06/12 06:08:51;;;;;;;7.55;6.75;;;22.90;59.60;;;;;;10082774;28;20193;-58
2021/06/12 06:13:44;;;;;;;7.22;6.18;;;22.80;59.50;;;;;;10082235;28;20021;-59
2021/06/12 06:18:36;;;;;;;10.50;7.75;;;23.00;59.50;;;;;;10083127;28;20037;-59
2021/06/12 06:23:27;;;;;;;9.73;6.22;;;23.00;59.40;;;;;;10083268;28;20033;-61
2021/06/12 06:28:18;;;;;;;8.60;6.60;;;23.10;59.30;;;;;;10083018;28;20029;-58
2021/06/12 06:33:09;;;;;;;7.03;6.32;;;23.40;59.10;;;;;;10083515;28;20376;-57
2021/06/12 06:38:00;;;;;;;9.82;6.85;;;23.50;58.90;;;;;;10081908;28;20041;-58
2021/06/12 06:42:51;;;;;;;9.00;7.13;;;23.50;58.80;;;;;;10097316;28;20036;-58
2021/06/12 06:47:41;;;;;;;10.68;7.97;;;23.50;59.00;;;;;;10081089;28;20028;-57
2021/06/12 06:52:32;;;;;;;8.43;7.38;;;23.30;59.10;;;;;;10083722;28;20540;-58
2021/06/12 06:57:23;;;;;;;7.05;6.20;;;23.30;59.60;;;;;;10080677;28;20037;-58
2021/06/12 07:02:14;;;;;;;7.85;7.03;;;23.40;59.30;;;;;;10081626;28;20036;-59
2021/06/12 07:07:05;;;;;;;12.18;8.07;;;23.70;58.90;;;;;;10084262;28;20056;-59
2021/06/12 07:11:58;;;;;;;10.77;8.25;;;23.60;59.00;;;;;;10079951;28;20542;-57
2021/06/12 07:16:49;;;;;;;10.18;7.30;;;23.50;59.50;;;;;;10081421;28;20032;-58
2021/06/12 07:21:40;;;;;;;9.02;7.25;;;23.60;59.40;;;;;;10079892;28;20051;-57
2021/06/12 07:26:30;;;;;;;10.07;7.35;;;23.70;59.20;;;;;;10082279;28;20032;-57
2021/06/12 07:31:21;;;;;;;8.32;7.18;;;23.80;59.00;;;;;;10081439;28;20506;-56
2021/06/12 07:36:12;;;;;;;11.02;8.05;;;23.90;58.80;;;;;;10084729;28;20037;-60
2021/06/12 07:41:03;;;;;;;13.02;7.78;;;23.80;59.10;;;;;;10088252;28;20036;-59
2021/06/12 07:45:54;;;;;;;10.85;7.65;;;24.00;58.90;;;;;;10086692;28;20602;-59
2021/06/12 07:50:44;;;;;;;9.90;8.40;;;24.00;59.00;;;;;;10090647;28;20028;-59
2021/06/12 07:55:36;;;;;;;12.93;8.70;;;24.10;58.70;;;;;;10087098;28;20091;-60
2021/06/12 08:00:27;;;;;;;9.13;7.10;;;24.30;58.30;;;;;;10089953;28;20110;-58
2021/06/12 08:05:17;;;;;;;10.00;6.43;;;24.40;58.30;;;;;;10087170;28;20029;-59
2021/06/12 08:10:09;;;;;;;8.65;7.47;;;24.50;58.40;;;;;;10087342;28;20450;-59
2021/06/12 08:15:00;;;;;;;14.48;5.57;;;24.60;58.10;;;;;;10087765;28;20422;-60
2021/06/12 08:19:50;;;;;;;8.73;6.05;;;24.60;58.10;;;;;;10087398;28;20037;-58
2021/06/12 08:24:41;;;;;;;6.53;4.95;;;24.70;57.70;;;;;;10088622;28;20032;-58
2021/06/12 08:29:32;;;;;;;6.43;3.72;;;25.00;57.30;;;;;;10087209;28;20018;-59
2021/06/12 08:34:23;;;;;;;5.25;3.55;;;25.00;57.10;;;;;;10089024;28;20108;-58
2021/06/12 08:39:14;;;;;;;3.10;2.80;;;25.10;57.10;;;;;;10084162;28;20040;-59
2021/06/12 08:44:05;;;;;;;4.07;3.03;;;25.20;57.50;;;;;;10088334;28;20036;-60
2021/06/12 08:48:57;;;;;;;4.22;2.30;;;25.30;57.40;;;;;;10086034;28;20482;-57
2021/06/12 08:53:49;;;;;;;2.38;1.95;;;25.40;57.70;;;;;;10087593;28;20095;-59
2021/06/12 08:58:39;;;;;;;1.77;1.50;;;25.50;57.80;;;;;;10085388;28;20087;-58
2021/06/12 09:03:32;;;;;;;3.40;1.83;;;25.70;57.20;;;;;;10085660;28;20373;-58
2021/06/12 09:08:25;;;;;;;3.80;2.00;;;25.60;56.80;;;;;;10086187;28;20080;-58
2021/06/12 09:13:17;;;;;;;4.38;2.25;;;25.80;56.30;;;;;;10082175;28;20108;-58
2021/06/12 09:18:08;;;;;;;5.30;2.17;;;25.90;55.90;;;;;;10087038;28;20048;-59
2021/06/12 09:23:11;;;;;;;3.63;2.28;;;25.90;55.90;;;;;;10085171;28;20043;-58
2021/06/12 09:28:01;;;;;;;6.50;2.10;;;25.90;56.00;;;;;;10085035;28;20045;-60
2021/06/12 09:32:52;;;;;;;2.75;1.77;;;26.00;55.30;;;;;;10082829;28;20033;-58
2021/06/12 09:37:45;;;;;;;3.20;1.55;;;26.10;55.00;;;;;;10084548;28;20040;-58
2021/06/12 09:42:48;;;;;;;3.25;1.80;;;26.30;54.60;;;;;;10083864;28;20013;-58
2021/06/12 09:47:39;;;;;;;2.10;1.90;;;26.50;54.20;;;;;;10085042;28;20112;-58
2021/06/12 09:52:46;;;;;;;2.03;1.83;;;26.80;54.60;;;;;;10083291;28;20092;-59
2021/06/12 09:57:48;;;;;;;2.42;1.75;;;26.80;53.60;;;;;;10083150;28;20483;-59
2021/06/12 10:02:40;;;;;;;4.28;1.95;;;27.00;53.00;;;;;;10082493;28;20120;-60
2021/06/12 10:07:31;;;;;;;2.80;1.77;;;27.00;53.40;;;;;;10082244;28;20044;-59
2021/06/12 10:12:23;;;;;;;2.67;2.08;;;27.10;53.20;;;;;;10083256;28;20103;-60
2021/06/12 10:17:15;;;;;;;4.00;2.55;;;27.30;52.90;;;;;;10081160;28;20055;-59
2021/06/12 10:22:06;;;;;;;3.40;1.98;;;27.40;52.80;;;;;;10084321;28;20239;-59
2021/06/12 10:26:57;;;;;;;3.15;1.75;;;27.50;52.50;;;;;;10081374;28;20029;-59
2021/06/12 10:31:48;;;;;;;3.00;1.67;;;27.50;53.00;;;;;;10083405;28;20032;-59
2021/06/12 10:36:41;;;;;;;6.15;3.55;;;27.40;52.60;;;;;;10080996;28;20482;-62
2021/06/12 10:41:34;;;;;;;3.10;2.30;;;27.50;52.60;;;;;;10083809;28;20035;-59
2021/06/12 10:46:29;;;;;;;2.92;1.83;;;27.50;52.60;;;;;;10081816;28;20120;-62
2021/06/12 10:51:26;;;;;;;3.10;1.73;;;27.50;52.40;;;;;;10081237;28;20029;-59
2021/06/12 10:56:32;;;;;;;3.15;1.67;;;27.40;52.00;;;;;;10079049;28;20570;-58
2021/06/12 11:01:24;;;;;;;2.20;1.55;;;27.50;51.80;;;;;;10081178;28;20044;-58
2021/06/12 11:06:34;;;;;;;2.85;2.05;;;27.20;52.10;;;;;;10081894;28;20063;-60
2021/06/12 11:11:32;;;;;;;1.95;1.75;;;27.30;51.70;;;;;;10089136;28;20025;-60
2021/06/12 11:16:23;;;;;;;2.08;1.55;;;27.50;50.60;;;;;;10090319;28;20055;-59
2021/06/12 11:21:13;;;;;;;1.98;1.63;;;27.60;50.40;;;;;;10088505;28;20041;-59
2021/06/12 11:26:04;;;;;;;2.00;1.48;;;28.00;49.70;;;;;;10090157;28;20032;-60
2021/06/12 11:31:33;;;;;;;2.80;1.40;;;28.10;48.70;;;;;;10086897;28;20717;-59
2021/06/12 11:36:25;;;;;;;2.38;1.20;;;28.20;47.40;;;;;;10085541;28;20032;-59
2021/06/12 11:41:16;;;;;;;2.83;1.27;;;28.00;47.40;;;;;;10085564;28;20040;-60
2021/06/12 11:46:17;;;;;;;2.35;1.52;;;28.00;47.20;;;;;;10089216;28;20048;-59
2021/06/12 11:51:21;;;;;;;2.78;1.40;;;28.00;46.60;;;;;;10087709;28;20033;-57
2021/06/12 11:56:12;;;;;;;;;;;28.10;46.10;;;;;;10082323;28;20037;-58
2021/06/12 12:01:03;;;;;;;1.48;0.98;;;28.20;45.70;;;;;;10086854;28;19912;-59
2021/06/12 12:05:59;;;;;;;3.22;0.85;;;28.20;45.60;;;;;;10089747;28;20194;-59
2021/06/12 12:10:52;;;;;;;1.48;1.17;;;28.30;44.70;;;;;;10087472;28;20075;-58
2021/06/12 12:15:45;;;;;;;3.80;1.20;;;28.70;44.40;;;;;;10088558;28;20491;-59
2021/06/12 12:20:42;;;;;;;1.10;0.70;;;29.00;44.30;;;;;;10118497;28;20190;-58
2021/06/12 12:25:33;;;;;;;1.92;0.80;;;29.00;44.20;;;;;;10086070;28;20017;-58
2021/06/12 12:30:27;;;;;;;0.73;0.70;;;29.10;44.40;;;;;;10086973;28;20029;-57
2021/06/12 12:35:18;;;;;;;1.67;0.85;;;29.60;43.80;;;;;;10085765;28;20013;-57
2021/06/12 12:40:20;;;;;;;3.08;1.02;;;30.10;43.50;;;;;;10088292;28;20480;-60
2021/06/12 12:45:11;;;;;;;1.20;0.82;;;30.10;42.50;;;;;;10086139;28;20028;-58
2021/06/12 12:50:05;;;;;;;1.48;0.82;;;30.80;42.10;;;;;;10087422;28;20029;-59
2021/06/12 12:55:01;;;;;;;0.77;0.75;;;31.90;40.80;;;;;;10082809;28;20063;-59
2021/06/12 12:59:52;;;;;;;1.42;0.60;;;32.10;40.00;;;;;;10100156;28;20033;-58
2021/06/12 13:04:44;;;;;;;0.75;0.40;;;32.40;38.80;;;;;;10084424;28;20111;-59
2021/06/12 13:09:37;;;;;;;1.27;0.60;;;33.10;37.50;;;;;;10086162;28;20397;-58
2021/06/12 13:14:30;;;;;;;0.52;0.50;;;33.80;36.30;;;;;;10085228;28;20032;-58
2021/06/12 13:19:29;;;;;;;0.90;0.57;;;34.00;35.00;;;;;;10086076;28;20029;-60
2021/06/12 13:24:20;;;;;;;0.40;0.40;;;34.40;34.00;;;;;;10084988;28;20531;-58
2021/06/12 13:29:22;;;;;;;1.73;0.68;;;34.00;34.50;;;;;;10085160;28;20110;-59
2021/06/12 13:34:26;;;;;;;1.65;0.50;;;34.20;33.90;;;;;;10083042;28;20033;-58
2021/06/12 13:39:34;;;;;;;0.60;0.60;;;33.70;33.60;;;;;;10079649;28;20538;-57
2021/06/12 13:44:25;;;;;;;3.15;0.85;;;32.90;34.50;;;;;;10085491;28;20107;-58
2021/06/12 13:49:15;;;;;;;0.85;0.80;;;33.20;34.10;;;;;;10083649;28;20024;-58
2021/06/12 13:54:06;;;;;;;1.20;0.52;;;33.10;34.10;;;;;;10085827;28;20032;-57
2021/06/12 13:58:58;;;;;;;0.70;0.60;;;32.70;34.50;;;;;;10081010;28;20498;-57
2021/06/12 14:03:49;;;;;;;1.38;0.60;;;33.00;34.40;;;;;;10085593;28;20131;-58
2021/06/12 14:08:40;;;;;;;0.57;0.57;;;32.90;34.70;;;;;;10082604;28;20053;-58
2021/06/12 14:13:31;;;;;;;0.98;0.85;;;33.20;34.00;;;;;;10083529;28;20128;-58
2021/06/12 14:18:22;;;;;;;0.40;0.40;;;33.20;34.10;;;;;;10083297;28;20033;-59
2021/06/12 14:23:14;;;;;;;0.50;0.50;;;32.30;34.60;;;;;;10081506;28;20024;-57
2021/06/12 14:28:05;;;;;;;2.23;0.47;;;32.30;34.40;;;;;;10083849;28;20068;-58
2021/06/12 14:32:56;;;;;;;1.63;0.50;;;32.90;34.30;;;;;;10079309;28;20493;-57
2021/06/12 14:37:47;;;;;;;1.38;0.80;;;33.00;34.00;;;;;;10083775;28;20074;-58
2021/06/12 14:42:38;;;;;;;1.55;0.57;;;33.10;33.70;;;;;;10081560;28;20426;-58
2021/06/12 14:47:29;;;;;;;0.45;0.45;;;33.90;32.90;;;;;;10083674;28;20025;-58
2021/06/12 14:52:21;;;;;;;2.55;0.60;;;34.50;32.50;;;;;;10081939;28;20025;-58
2021/06/12 14:57:12;;;;;;;1.10;0.70;;;34.90;32.30;;;;;;10081563;28;20129;-58
2021/06/12 15:02:03;;;;;;;0.50;0.50;;;34.80;32.40;;;;;;10081106;28;20045;-60
2021/06/12 15:06:54;;;;;;;1.00;0.70;;;34.50;32.50;;;;;;10081884;28;20044;-58
2021/06/12 15:11:44;;;;;;;0.80;0.57;;;34.50;32.50;;;;;;10082225;28;20056;-59
2021/06/12 15:16:35;;;;;;;0.77;0.77;;;35.20;31.50;;;;;;10079716;28;20098;-59
2021/06/12 15:21:26;;;;;;;0.70;0.60;;;35.00;31.80;;;;;;10082130;28;20302;-59
2021/06/12 15:26:17;;;;;;;0.53;0.53;;;34.50;32.10;;;;;;10079909;28;20472;-58
2021/06/12 15:31:07;;;;;;;0.70;0.65;;;33.90;32.40;;;;;;10081853;28;20708;-59
2021/06/12 15:35:58;;;;;;;0.80;0.70;;;33.50;32.90;;;;;;10079766;28;20064;-58
2021/06/12 15:40:49;;;;;;;0.73;0.60;;;33.90;32.70;;;;;;10081601;28;20029;-57
2021/06/12 15:45:40;;;;;;;1.15;0.88;;;34.50;32.20;;;;;;10080330;28;20024;-58
2021/06/12 15:50:32;;;;;;;1.33;0.83;;;34.30;32.30;;;;;;10080582;28;20029;-58
2021/06/12 15:55:23;;;;;;;1.10;0.85;;;34.80;32.70;;;;;;10082763;28;20029;-59
2021/06/12 16:00:14;;;;;;;0.80;0.80;;;34.90;32.50;;;;;;10087968;28;20407;-59
2021/06/12 16:05:05;;;;;;;;;;;34.90;32.70;;;;;;10090373;28;20614;-58
2021/06/12 16:09:57;;;;;;;1.95;1.10;;;34.50;32.70;;;;;;10087661;28;20117;-57
2021/06/12 16:14:48;;;;;;;1.67;1.58;;;35.40;32.30;;;;;;10088349;28;20115;-58
2021/06/12 16:19:39;;;;;;;1.88;1.77;;;36.10;31.50;;;;;;10085969;28;20510;-58
2021/06/12 16:24:30;;;;;;;3.65;1.88;;;36.80;31.00;;;;;;10086376;28;20391;-58
2021/06/12 16:29:21;;;;;;;2.37;1.90;;;36.20;30.50;;;;;;10086529;28;20043;-58
2021/06/12 16:34:12;;;;;;;1.98;1.70;;;34.10;32.50;;;;;;10086644;28;20023;-59
2021/06/12 16:39:04;;;;;;;2.10;1.90;;;35.70;30.60;;;;;;10088616;28;20076;-58
2021/06/12 16:43:55;;;;;;;2.75;2.05;;;36.70;29.70;;;;;;10084669;28;20025;-57
2021/06/12 16:48:46;;;;;;;2.57;1.63;;;36.80;29.50;;;;;;10087341;28;20025;-59
2021/06/12 16:53:40;;;;;;;2.42;1.92;;;35.90;30.20;;;;;;10086424;28;20102;-57
2021/06/12 17:03:36;;;;;;;2.67;1.77;;;31.40;34.80;;;;;;10085993;28;20488;-58
2021/06/12 17:08:27;;;;;;;2.97;1.85;;;30.70;35.70;;;;;;10085087;28;20071;-59
2021/06/12 17:13:19;;;;;;;3.13;2.10;;;29.90;37.30;;;;;;10083350;28;20325;-58
2021/06/12 17:18:10;;;;;;;2.63;1.98;;;29.40;38.50;;;;;;10085478;28;20102;-60
2021/06/12 17:23:01;;;;;;;3.25;1.90;;;32.40;35.40;;;;;;10085766;28;20765;-58
2021/06/12 17:27:51;;;;;;;3.72;2.10;;;31.70;35.70;;;;;;10083589;28;20446;-59
2021/06/12 17:32:42;;;;;;;3.15;2.13;;;29.90;38.80;;;;;;10087039;28;20072;-58
2021/06/12 17:37:34;;;;;;;2.80;2.10;;;29.10;39.70;;;;;;10083299;28;20102;-59
2021/06/12 17:42:25;;;;;;;3.15;1.92;;;28.80;40.30;;;;;;10085878;28;20048;-61
2021/06/12 17:47:16;;;;;;;2.72;2.25;;;28.60;40.70;;;;;;10083071;28;20040;-59
2021/06/12 17:52:06;;;;;;;3.40;2.20;;;31.30;38.30;;;;;;10084839;28;20036;-61
2021/06/12 17:56:57;;;;;;;1.90;1.80;;;32.90;36.30;;;;;;10083163;28;20049;-60
2021/06/12 18:01:48;;;;;;;2.45;2.22;;;33.10;36.70;;;;;;10082046;28;20422;-59
2021/06/12 18:06:39;;;;;;;3.53;2.85;;;30.80;39.10;;;;;;10084587;28;20045;-59
2021/06/12 18:11:30;;;;;;;2.22;2.03;;;29.30;41.00;;;;;;10083314;28;20039;-64
2021/06/12 18:16:21;;;;;;;3.78;2.38;;;28.30;42.30;;;;;;10082942;28;20051;-59
2021/06/12 18:21:11;;;;;;;2.70;2.28;;;28.00;43.40;;;;;;10082026;28;20228;-58
2021/06/12 18:26:03;;;;;;;5.32;2.58;;;27.90;43.40;;;;;;10080394;28;20029;-58
2021/06/12 18:30:54;;;;;;;3.78;2.72;;;27.70;43.80;;;;;;10082961;28;20063;-58
2021/06/12 18:35:47;;;;;;;2.58;2.38;;;27.50;44.40;;;;;;10082885;28;20166;-58
2021/06/12 18:40:38;;;;;;;3.10;2.80;;;27.30;44.90;;;;;;10084202;28;20049;-60
2021/06/12 18:45:29;;;;;;;2.72;2.53;;;27.10;45.40;;;;;;10080658;28;20048;-59
2021/06/12 18:50:20;;;;;;;7.20;3.38;;;26.90;45.50;;;;;;10084397;28;20526;-59
2021/06/12 18:55:12;;;;;;;2.92;2.22;;;26.80;45.70;;;;;;10078918;28;20028;-59
2021/06/12 19:00:07;;;;;;;3.75;2.50;;;26.60;45.70;;;;;;10084100;28;20043;-60
2021/06/12 19:04:59;;;;;;;3.05;2.63;;;26.60;46.00;;;;;;10081519;28;20025;-59
2021/06/12 19:09:50;;;;;;;2.88;2.42;;;26.50;45.90;;;;;;10082416;28;20053;-60
2021/06/12 19:14:41;;;;;;;4.53;3.22;;;26.40;45.90;;;;;;10080425;28;20027;-60
2021/06/12 19:19:33;;;;;;;3.42;2.78;;;26.20;46.10;;;;;;10080261;28;20037;-58
2021/06/12 19:24:24;;;;;;;4.22;3.00;;;26.20;46.40;;;;;;10084237;28;20082;-62
2021/06/12 19:29:15;;;;;;;5.45;3.78;;;26.10;46.40;;;;;;10081164;28;20017;-60
2021/06/12 19:34:07;;;;;;;2.90;2.60;;;26.10;46.90;;;;;;10088356;28;20041;-61
2021/06/12 19:39:01;;;;;;;5.13;2.78;;;25.90;47.30;;;;;;10087040;28;20095;-59
2021/06/12 19:43:52;;;;;;;4.37;2.77;;;25.60;47.80;;;;;;10089939;28;20419;-60
2021/06/12 19:48:43;;;;;;;2.80;2.55;;;25.60;48.00;;;;;;10088911;28;20032;-59
2021/06/12 19:53:41;;;;;;;2.72;2.47;;;25.40;49.00;;;;;;10088642;28;20151;-61
2021/06/12 19:58:33;;;;;;;3.33;2.30;;;25.40;48.70;;;;;;10088608;28;20033;-60
2021/06/12 20:03:24;;;;;;;5.72;2.60;;;25.20;49.00;;;;;;10089767;28;20068;-59
2021/06/12 20:08:15;;;;;;;4.57;3.20;;;25.00;49.60;;;;;;10085520;28;20051;-61
2021/06/12 20:13:05;;;;;;;6.15;3.17;;;25.10;49.70;;;;;;10087031;28;20037;-60
2021/06/12 20:17:56;;;;;;;4.22;3.10;;;25.00;50.20;;;;;;10088618;28;20059;-61
2021/06/12 20:22:47;;;;;;;3.58;3.25;;;25.00;50.30;;;;;;10085290;28;20029;-60
2021/06/12 20:27:38;;;;;;;3.92;2.50;;;24.80;50.80;;;;;;10088494;28;20548;-61
2021/06/12 20:32:29;;;;;;;3.15;2.67;;;24.70;51.30;;;;;;10087346;28;20445;-58
2021/06/12 20:37:20;;;;;;;4.75;2.60;;;24.70;51.60;;;;;;10088193;28;20220;-61
2021/06/12 20:42:11;;;;;;;6.05;2.70;;;24.60;51.80;;;;;;10085876;28;20504;-58
2021/06/12 20:47:02;;;;;;;3.53;2.42;;;24.60;51.80;;;;;;10086509;28;20044;-59
2021/06/12 20:51:52;;;;;;;4.13;2.90;;;24.60;51.90;;;;;;10078898;28;20047;-58
2021/06/12 20:56:43;;;;;;;2.85;2.22;;;24.60;52.10;;;;;;10082227;28;20084;-58
2021/06/12 21:01:34;;;;;;;3.42;2.50;;;24.50;52.30;;;;;;10087588;28;20055;-58
2021/06/12 21:06:25;;;;;;;2.80;2.28;;;24.40;52.50;;;;;;10084378;28;20053;-58
2021/06/12 21:11:15;;;;;;;5.30;3.28;;;24.20;53.20;;;;;;10087325;28;20041;-59
2021/06/12 21:16:06;;;;;;;2.67;2.40;;;24.20;52.90;;;;;;10084862;28;20068;-59
2021/06/12 21:20:57;;;;;;;2.75;2.45;;;24.20;52.90;;;;;;10082683;28;20052;-59
2021/06/12 21:25:48;;;;;;;4.22;2.63;;;24.20;53.00;;;;;;10085110;28;20557;-59
2021/06/12 21:30:39;;;;;;;3.13;2.60;;;24.20;53.40;;;;;;10086075;28;20029;-58
2021/06/12 21:35:30;;;;;;;3.60;2.85;;;24.20;53.20;;;;;;10086242;28;20024;-60
2021/06/12 21:40:21;;;;;;;3.15;2.65;;;24.20;53.10;;;;;;10082015;28;20032;-58
2021/06/12 21:45:12;;;;;;;5.00;2.40;;;24.10;53.40;;;;;;10085690;28;20039;-60
2021/06/12 21:50:04;;;;;;;3.15;2.45;;;23.90;54.00;;;;;;10082514;28;20025;-58
2021/06/12 21:54:55;;;;;;;3.67;2.33;;;23.70;54.40;;;;;;10083845;28;20025;-58
2021/06/12 21:59:46;;;;;;;2.67;2.22;;;23.60;54.50;;;;;;10081590;28;20041;-57
2021/06/12 22:04:36;;;;;;;4.90;2.10;;;23.70;54.30;;;;;;10084516;28;20021;-60
2021/06/12 22:09:27;;;;;;;3.38;2.17;;;23.60;54.50;;;;;;10083974;28;20044;-57
2021/06/12 22:14:18;;;;;;;4.05;2.42;;;23.60;54.60;;;;;;10080970;28;20025;-59
2021/06/12 22:19:10;;;;;;;5.07;2.40;;;23.60;54.80;;;;;;10084088;28;20033;-57
2021/06/12 22:24:00;;;;;;;4.53;2.65;;;23.60;54.50;;;;;;10080682;28;20039;-58
2021/06/12 22:28:51;;;;;;;4.75;3.20;;;23.40;54.90;;;;;;10085291;28;20025;-58
2021/06/12 22:33:42;;;;;;;2.88;2.35;;;23.40;55.10;;;;;;10082865;28;20022;-57
2021/06/12 22:38:33;;;;;;;2.40;2.03;;;23.40;55.00;;;;;;10083412;28;20033;-58
2021/06/12 22:43:24;;;;;;;3.92;2.38;;;23.50;54.90;;;;;;10080529;28;20037;-58
2021/06/12 22:48:15;;;;;;;2.40;2.05;;;23.50;54.90;;;;;;10079705;28;20037;-57
2021/06/12 22:53:06;;;;;;;2.17;1.98;;;23.50;55.10;;;;;;10084431;28;20036;-58
2021/06/12 22:57:57;;;;;;;2.30;1.95;;;23.50;55.10;;;;;;10080144;28;20052;-57
2021/06/12 23:02:47;;;;;;;3.83;2.60;;;23.60;55.20;;;;;;10084015;28;20695;-57
2021/06/12 23:07:41;;;;;;;3.65;2.63;;;23.40;55.30;;;;;;10081467;28;20128;-57
2021/06/12 23:12:32;;;;;;;3.75;2.38;;;23.20;55.70;;;;;;10082699;28;20564;-58
2021/06/12 23:17:23;;;;;;;2.75;2.20;;;23.20;55.80;;;;;;10064918;28;20103;-58
2021/06/12 23:22:13;;;;;;;3.95;2.85;;;23.10;55.80;;;;;;10081067;28;20052;-57
2021/06/12 23:27:04;;;;;;;3.13;2.30;;;23.10;55.60;;;;;;10081754;28;20072;-58
2021/06/12 23:31:55;;;;;;;3.38;2.50;;;23.00;55.50;;;;;;10077378;28;20025;-58
2021/06/12 23:36:46;;;;;;;2.85;2.20;;;22.80;55.80;;;;;;10080140;28;20047;-57
2021/06/12 23:41:37;;;;;;;3.47;2.63;;;22.80;55.60;;;;;;10081295;28;20481;-58
2021/06/12 23:46:28;;;;;;;3.95;2.90;;;22.80;55.50;;;;;;10083066;28;20064;-58
2021/06/12 23:51:19;;;;;;;3.28;2.40;;;22.70;55.40;;;;;;10079745;28;20021;-58
2021/06/12 23:56:10;;;;;;;4.20;2.67;;;22.90;55.30;;;;;;10082618;28;20576;-59
